Time;durP1;ratioP1;P1;durP2;ratioP2;P2;SDS_P1;SDS_P2;PMS_P1;PMS_P2;Temp;Humidity;BMP_temperature;BMP_pressure;BME280_temperature;BME280_humidity;BME280_pressure;Samples;Min_cycle;Max_cycle;Signal;HPM_P1;HPM_P2
2024/04/27 00:00:30;;;;;;;2.33;0.80;;;;;;;14.42;80.70;100947.28;10888017;27;20074;-82
2024/04/27 00:05:54;;;;;;;2.70;0.95;;;;;;;14.53;78.83;100946.44;10946302;27;20436;-79
2024/04/27 00:11:18;;;;;;;4.50;1.27;;;;;;;14.51;77.72;100949.94;10916632;27;20030;-79
2024/04/27 00:16:45;;;;;;;0.95;0.80;;;;;;;14.49;76.65;100949.97;10925283;26;20031;-80
2024/04/27 00:22:09;;;;;;;2.05;0.90;;;;;;;14.45;75.46;100949.94;10990179;26;20002;-79
2024/04/27 00:27:38;;;;;;;3.05;1.17;;;;;;;14.35;75.08;100941.94;10985303;27;20351;-80
2024/04/27 00:33:04;;;;;;;2.28;1.10;;;;;;;14.29;73.88;100931.28;10941843;26;20007;-79
2024/04/27 00:38:28;;;;;;;1.15;0.70;;;;;;;14.16;73.86;100934.78;10936871;27;20013;-80
2024/04/27 00:43:52;;;;;;;2.83;1.10;;;;;;;14.03;73.62;100930.31;10929152;27;20053;-80
2024/04/27 00:49:20;;;;;;;2.13;0.93;;;;;;;14.08;73.65;100936.50;10906920;27;20043;-82
2024/04/27 00:54:44;;;;;;;2.50;0.90;;;;;;;14.01;72.61;100924.09;10961473;27;20029;-83
2024/04/27 01:00:11;;;;;;;1.77;0.85;;;;;;;13.96;73.00;100920.53;10914085;27;20090;-80
2024/04/27 01:05:39;;;;;;;3.90;0.90;;;;;;;13.77;73.98;100918.69;10985917;27;20417;-80
2024/04/27 01:11:03;;;;;;;2.42;0.82;;;;;;;13.42;76.34;100932.63;10986577;27;20037;-82
2024/04/27 01:16:28;;;;;;;2.28;0.70;;;;;;;13.39;77.56;100942.34;10953027;26;20006;-80
2024/04/27 01:21:55;;;;;;;1.10;0.80;;;;;;;13.36;77.54;100937.88;11003921;26;20002;-79
2024/04/27 01:27:22;;;;;;;3.35;1.15;;;;;;;13.19;80.64;100943.94;10972261;27;20078;-78
2024/04/27 01:32:46;;;;;;;1.85;0.85;;;;;;;13.17;82.44;100946.56;10938184;27;20338;-78
2024/04/27 01:38:11;;;;;;;1.55;0.90;;;;;;;13.20;82.33;100940.38;10941807;27;20438;-78
2024/04/27 01:43:38;;;;;;;1.70;0.80;;;;;;;13.08;82.69;100952.66;10979801;27;20005;-78
2024/04/27 01:49:02;;;;;;;3.30;1.08;;;;;;;13.05;84.77;100939.38;10978011;27;20496;-80
2024/04/27 01:54:26;;;;;;;3.20;1.20;;;;;;;12.98;86.12;100945.50;10900015;27;20430;-80
2024/04/27 01:59:54;;;;;;;2.10;0.93;;;;;;;12.93;87.50;100935.75;10960446;27;20001;-80
2024/04/27 02:05:18;;;;;;;2.13;1.10;;;;;;;12.96;87.40;100935.75;10972875;27;20014;-80
2024/04/27 02:10:42;;;;;;;3.05;0.90;;;;;;;12.94;87.67;100933.09;10960024;27;20002;-78
2024/04/27 02:21:49;;;;;;;2.25;1.00;;;;;;;12.87;90.87;100927.72;10898982;27;20005;-78
2024/04/27 02:27:13;;;;;;;3.53;1.02;;;;;;;12.65;94.49;100930.19;10936747;27;20653;-79
2024/04/27 02:32:41;;;;;;;3.25;1.40;;;;;;;12.64;100.00;100938.13;10892200;27;20002;-79
2024/04/27 02:38:05;;;;;;;3.83;1.38;;;;;;;12.64;100.00;100931.06;10962398;27;20016;-80
2024/04/27 02:43:30;;;;;;;2.10;1.20;;;;;;;12.69;100.00;100924.03;10914972;27;20043;-79
2024/04/27 02:48:57;;;;;;;2.35;1.08;;;;;;;12.75;100.00;100937.34;10890827;27;20038;-79
2024/04/27 02:54:21;;;;;;;2.67;1.08;;;;;;;12.72;100.00;100936.44;10888192;27;20017;-79
2024/04/27 02:59:45;;;;;;;4.55;1.20;;;;;;;12.70;100.00;100940.81;10924850;27;20389;-78
2024/04/27 03:05:12;;;;;;;3.92;0.80;;;;;;;12.54;100.00;100945.06;10912174;27;20544;-78
2024/04/27 03:10:36;;;;;;;5.93;1.40;;;;;;;12.64;100.00;100931.06;10941489;27;20006;-79
2024/04/27 03:16:00;;;;;;;4.35;1.00;;;;;;;12.71;100.00;100926.72;10910853;27;20014;-78
2024/04/27 03:21:28;;;;;;;1.70;1.25;;;;;;;12.69;100.00;100945.22;11045242;26;20005;-78
2024/04/27 03:26:52;;;;;;;2.40;0.95;;;;;;;12.69;100.00;100950.53;10968154;27;20342;-79
2024/04/27 03:32:16;;;;;;;1.83;1.10;;;;;;;12.58;100.00;100964.53;10974297;27;20006;-78
2024/04/27 03:37:43;;;;;;;2.90;1.10;;;;;;;12.59;100.00;100959.25;10951719;27;20005;-78
2024/04/27 03:43:07;;;;;;;2.85;0.90;;;;;;;12.78;100.00;100958.56;10980863;27;20005;-80
2024/04/27 03:48:32;;;;;;;4.07;0.93;;;;;;;12.98;100.00;100968.47;10943741;27;20470;-78
2024/04/27 03:53:59;;;;;;;3.90;1.20;;;;;;;13.06;100.00;100958.81;10909541;27;20002;-78
2024/04/27 03:59:23;;;;;;;3.05;1.00;;;;;;;13.25;100.00;100974.03;10918551;27;20014;-78
2024/04/27 04:04:48;;;;;;;4.88;0.75;;;;;;;13.68;100.00;100974.34;10947881;27;20005;-78
2024/04/27 04:10:15;;;;;;;2.70;1.23;;;;;;;14.17;100.00;100971.06;10976964;27;20345;-78
2024/04/27 04:15:40;;;;;;;2.85;0.90;;;;;;;14.58;100.00;100971.22;10977855;27;20021;-79
2024/04/27 04:21:04;;;;;;;3.08;1.00;;;;;;;15.04;100.00;100974.84;10932410;26;20050;-79
2024/04/27 04:26:31;;;;;;;2.70;0.88;;;;;;;15.44;100.00;100980.16;10908583;27;20005;-79
2024/04/27 04:31:55;;;;;;;3.20;1.42;;;;;;;15.87;100.00;100963.28;10934680;26;20003;-78
2024/04/27 04:37:19;;;;;;;5.43;1.50;;;;;;;16.27;98.04;100960.47;10899599;27;20427;-78
2024/04/27 04:42:46;;;;;;;3.20;1.40;;;;;;;16.83;94.67;100953.94;10951533;27;20001;-79
2024/04/27 04:48:10;;;;;;;1.50;0.90;;;;;;;17.46;93.55;100964.09;10953066;27;20012;-79
2024/04/27 04:53:34;;;;;;;2.35;0.70;;;;;;;18.07;89.66;100967.94;10947791;27;20338;-78
2024/04/27 04:59:01;;;;;;;2.92;0.77;;;;;;;18.68;84.69;100989.47;10956126;26;20344;-82
2024/04/27 05:04:26;;;;;;;2.08;0.80;;;;;;;19.22;79.32;100979.72;10915345;27;20314;-80
2024/04/27 05:09:50;;;;;;;5.60;1.30;;;;;;;19.84;74.27;100975.97;10952229;27;20002;-81
2024/04/27 05:15:17;;;;;;;11.32;1.95;;;;;;;20.42;68.69;100974.81;10921494;27;20292;-81
2024/04/27 05:20:41;;;;;;;3.23;1.00;;;;;;;20.88;63.60;100966.59;10972112;26;20005;-82
2024/04/27 05:26:06;;;;;;;3.75;0.82;;;;;;;21.38;55.40;100970.81;10923962;27;20169;-83
2024/04/27 05:31:33;;;;;;;1.67;0.80;;;;;;;21.97;52.96;100979.09;10953569;27;20016;-82
2024/04/27 05:36:57;;;;;;;2.90;0.50;;;;;;;22.48;50.40;100982.09;10969140;27;20007;-80
2024/04/27 05:42:22;;;;;;;2.05;0.70;;;;;;;22.98;47.86;100985.06;10984835;27;20018;-82
2024/04/27 05:47:49;;;;;;;1.23;0.65;;;;;;;23.47;46.42;100986.16;10982102;27;20013;-82
2024/04/27 05:53:13;;;;;;;2.33;0.60;;;;;;;23.77;43.85;100983.28;10983088;27;20001;-81
2024/04/27 05:58:37;;;;;;;2.90;0.85;;;;;;;24.22;42.20;100988.88;10945717;27;20018;-81
2024/04/27 06:04:04;;;;;;;2.00;0.70;;;;;;;24.61;40.95;100996.44;10911973;27;20604;-81
2024/04/27 06:09:28;;;;;;;;;;;;;;;24.90;39.93;101008.81;10933539;27;20009;-82
2024/04/27 06:14:53;;;;;;;2.55;0.57;;;;;;;25.22;39.73;101004.81;10943363;27;19927;-81
2024/04/27 06:20:21;;;;;;;3.45;0.80;;;;;;;25.47;37.80;101010.09;11019811;26;20031;-81
2024/04/27 06:25:45;;;;;;;2.25;0.77;;;;;;;25.56;36.64;101012.41;10937078;27;20005;-81
2024/04/27 06:31:09;;;;;;;3.20;0.75;;;;;;;25.96;36.62;101004.34;10941084;27;20001;-83
2024/04/27 06:36:36;;;;;;;6.70;1.92;;;;;;;26.06;36.45;101010.22;10908360;27;20537;-83
2024/04/27 06:42:03;;;;;;;1.85;0.60;;;;;;;26.21;36.41;101020.38;10922838;27;20010;-80
2024/04/27 06:47:27;;;;;;;1.13;0.77;;;;;;;26.18;36.52;101029.53;10926092;27;20005;-78
2024/04/27 06:52:54;;;;;;;1.23;0.50;;;;;;;26.43;36.18;101039.28;10955588;27;20454;-79
2024/04/27 06:58:19;;;;;;;3.65;0.80;;;;;;;26.69;36.53;101038.97;10925577;27;20084;-77
2024/04/27 07:03:43;;;;;;;3.22;0.68;;;;;;;26.85;36.87;101029.13;10974642;27;20043;-79
2024/04/27 07:09:10;;;;;;;4.75;0.77;;;;;;;26.98;37.02;101028.63;10936231;27;20011;-82
2024/04/27 07:14:35;;;;;;;3.63;0.70;;;;;;;27.17;37.39;101034.91;10938960;27;20006;-80
2024/04/27 07:19:59;;;;;;;2.45;0.80;;;;;;;27.43;37.17;101028.19;10982996;26;20323;-80
2024/04/27 07:25:26;;;;;;;3.92;0.85;;;;;;;27.56;36.83;101030.25;10946703;27;20002;-81
2024/04/27 07:30:50;;;;;;;2.80;0.75;;;;;;;27.71;36.76;101045.72;10958337;27;20014;-81
2024/04/27 07:36:15;;;;;;;3.53;0.90;;;;;;;27.96;36.82;101041.78;10927278;27;20016;-82
2024/04/27 07:41:42;;;;;;;2.33;0.80;;;;;;;28.08;36.32;101041.13;10958396;27;20020;-82
2024/04/27 07:47:06;;;;;;;3.00;1.00;;;;;;;28.34;36.17;101039.78;10972342;27;20016;-82
2024/04/27 07:52:31;;;;;;;6.40;1.33;;;;;;;28.64;35.62;101029.06;10955387;26;20537;-80
2024/04/27 07:57:58;;;;;;;2.53;0.82;;;;;;;28.79;35.28;101026.41;10930135;27;20321;-82
2024/04/27 08:03:22;;;;;;;3.22;1.02;;;;;;;29.21;34.76;101020.38;10908582;27;20020;-82
2024/04/27 08:08:46;;;;;;;2.85;0.70;;;;;;;29.37;33.63;101019.53;10906981;27;19998;-82
2024/04/27 08:14:13;;;;;;;2.90;0.80;;;;;;;29.57;33.00;101021.94;10893786;27;20005;-82
2024/04/27 08:19:37;;;;;;;1.83;0.70;;;;;;;29.26;32.07;101018.28;11024674;26;20016;-82
2024/04/27 08:25:01;;;;;;;6.40;1.02;;;;;;;29.39;32.84;101025.75;11016091;26;20002;-82
2024/04/27 08:30:29;;;;;;;2.42;0.95;;;;;;;29.72;33.37;101031.94;10914857;27;20010;-82
2024/04/27 08:35:53;;;;;;;2.92;0.98;;;;;;;29.91;33.80;101021.69;10887055;27;20435;-81
2024/04/27 08:41:23;;;;;;;3.80;0.90;;;;;;;29.93;34.06;101014.31;10914997;27;20077;-81
2024/04/27 08:46:50;;;;;;;2.05;1.00;;;;;;;30.23;34.31;101006.13;10919397;27;20016;-81
2024/04/27 08:52:14;;;;;;;5.85;0.90;;;;;;;30.21;34.05;101026.25;10915291;27;20003;-81
2024/04/27 08:57:39;;;;;;;2.63;1.17;;;;;;;30.29;33.63;101019.38;10933329;27;20541;-81
2024/04/27 09:03:08;;;;;;;3.40;1.00;;;;;;;30.69;33.67;101025.94;10923103;27;20002;-82
2024/04/27 09:08:32;;;;;;;4.07;0.95;;;;;;;30.92;33.50;101016.25;10916278;27;20010;-81
2024/04/27 09:13:57;;;;;;;2.63;1.25;;;;;;;31.00;33.52;101018.47;10930389;27;20030;-84
2024/04/27 09:19:31;;;;;;;1.88;0.80;;;;;;;31.10;32.87;101009.66;10915087;27;20016;-82
2024/04/27 09:24:58;;;;;;;5.22;0.98;;;;;;;30.98;33.92;101012.28;10921391;27;20013;-82
2024/04/27 09:30:23;;;;;;;5.68;0.90;;;;;;;31.08;33.88;101005.25;10973991;26;20546;-83
2024/04/27 09:35:52;;;;;;;3.40;1.13;;;;;;;30.83;34.43;101006.84;10966041;27;20076;-81
2024/04/27 09:41:17;;;;;;;1.65;0.90;;;;;;;30.79;34.14;101009.84;10952143;27;20080;-81
2024/04/27 09:46:55;;;;;;;3.38;0.88;;;;;;;30.89;33.84;101011.00;10960699;27;20024;-82
2024/04/27 09:52:25;;;;;;;3.88;0.73;;;;;;;30.87;33.74;100997.47;10961311;27;20025;-82
2024/04/27 09:57:50;;;;;;;3.83;1.00;;;;;;;30.92;34.03;100983.53;10935176;27;20083;-81
2024/04/27 10:03:15;;;;;;;7.28;1.73;;;;;;;30.94;32.94;100988.88;10891361;27;20003;-83
2024/04/27 10:08:43;;;;;;;1.67;0.75;;;;;;;30.98;33.45;100972.25;10980584;27;20354;-83
2024/04/27 10:14:12;;;;;;;3.97;1.10;;;;;;;31.00;34.11;100985.75;10984920;27;20537;-83
2024/04/27 10:19:50;;;;;;;3.35;0.65;;;;;;;31.19;33.65;100989.03;10965472;26;20021;-82
2024/04/27 10:25:19;;;;;;;2.03;0.77;;;;;;;30.96;33.39;100979.63;10935129;27;20334;-81
2024/04/27 10:30:43;;;;;;;2.17;1.13;;;;;;;30.55;33.69;100976.00;10979648;27;20001;-80
2024/04/27 10:36:08;;;;;;;4.13;1.10;;;;;;;30.72;34.21;100986.69;10955416;27;20020;-80
2024/04/27 10:41:35;;;;;;;4.13;0.88;;;;;;;30.62;33.86;100961.00;10962845;26;20021;-81
2024/04/27 10:47:01;;;;;;;1.98;0.80;;;;;;;30.54;34.13;100961.47;10981877;27;20002;-81
2024/04/27 10:52:26;;;;;;;2.80;0.90;;;;;;;30.64;33.85;100957.22;10982628;27;20462;-81
2024/04/27 10:57:53;;;;;;;4.65;1.10;;;;;;;30.27;34.36;100960.47;10979220;27;20006;-81
2024/04/27 11:03:17;;;;;;;4.57;1.00;;;;;;;29.68;35.73;100951.41;10984473;26;20233;-81
2024/04/27 11:08:41;;;;;;;5.90;1.10;;;;;;;29.53;35.85;100968.69;10958563;27;20008;-81
2024/04/27 11:14:10;;;;;;;3.08;0.80;;;;;;;29.66;35.39;100969.69;10950844;27;20079;-80
2024/04/27 11:19:35;;;;;;;4.30;1.00;;;;;;;29.86;34.89;100972.09;11026836;26;20727;-81
2024/04/27 11:24:59;;;;;;;2.20;0.70;;;;;;;29.86;34.30;100974.81;11028366;26;19996;-81
2024/04/27 11:30:26;;;;;;;3.33;1.10;;;;;;;29.78;34.36;100982.56;10952528;26;20010;-80
2024/04/27 11:35:50;;;;;;;3.03;0.90;;;;;;;29.78;33.98;100966.22;10912432;27;20782;-80
2024/04/27 11:41:14;;;;;;;2.95;1.15;;;;;;;29.70;34.48;100961.25;10911096;27;20020;-81
2024/04/27 11:46:42;;;;;;;2.00;0.88;;;;;;;29.46;33.41;100975.47;10894857;27;20018;-81
2024/04/27 11:52:10;;;;;;;1.85;0.82;;;;;;;29.33;34.47;100969.84;10931162;27;20467;-81
2024/04/27 11:57:37;;;;;;;2.00;1.20;;;;;;;29.15;33.84;100984.47;10947829;27;20006;-82
2024/04/27 12:03:05;;;;;;;3.05;0.80;;;;;;;29.12;34.18;100988.28;10970879;27;20006;-78
2024/04/27 12:08:29;;;;;;;1.33;0.70;;;;;;;29.05;35.24;100995.03;10947797;27;20320;-81
2024/04/27 12:13:53;;;;;;;2.75;0.90;;;;;;;29.01;34.95;100988.03;10957843;27;20024;-79
2024/04/27 12:19:20;;;;;;;4.18;0.90;;;;;;;28.84;35.43;100988.97;11024598;26;20012;-80
2024/04/27 12:24:45;;;;;;;1.85;0.88;;;;;;;28.64;35.62;100974.72;11004244;26;20001;-81
2024/04/27 12:30:10;;;;;;;3.83;0.93;;;;;;;28.27;35.57;100970.44;10984348;27;20009;-80
2024/04/27 12:35:37;;;;;;;1.13;1.00;;;;;;;28.07;35.61;100969.66;10984604;27;20005;-79
2024/04/27 12:41:02;;;;;;;1.17;0.80;;;;;;;27.83;36.07;100976.34;10958424;26;20007;-80
2024/04/27 12:46:26;;;;;;;4.22;0.90;;;;;;;27.82;37.09;100985.50;10936793;27;20416;-80
2024/04/27 12:51:54;;;;;;;1.25;0.90;;;;;;;27.63;37.93;100973.84;10945119;27;20001;-79
2024/04/27 12:57:18;;;;;;;2.65;1.05;;;;;;;27.47;38.66;100987.25;10982937;27;20013;-79
2024/04/27 13:02:42;;;;;;;3.92;1.48;;;;;;;27.48;38.89;100988.13;10955423;27;20016;-78
2024/04/27 13:08:10;;;;;;;4.45;1.00;;;;;;;27.44;39.05;100981.13;10983575;27;20042;-78
2024/04/27 13:13:34;;;;;;;1.88;1.00;;;;;;;27.25;39.33;100979.31;10961688;27;20010;-79
2024/04/27 13:18:58;;;;;;;2.72;1.20;;;;;;;27.25;40.18;100984.75;10984505;26;20079;-78
2024/04/27 13:24:25;;;;;;;2.42;0.88;;;;;;;27.18;40.73;100979.69;10982473;27;20082;-80
2024/04/27 13:29:49;;;;;;;3.28;1.15;;;;;;;27.04;40.81;100958.72;10982181;27;20535;-79
2024/04/27 13:35:14;;;;;;;4.43;0.98;;;;;;;26.88;40.39;100965.81;10933199;27;20005;-79
2024/04/27 13:40:40;;;;;;;4.63;1.20;;;;;;;26.83;40.56;100976.88;10914541;27;20010;-79
2024/04/27 13:46:05;;;;;;;2.67;1.10;;;;;;;26.74;40.90;100974.59;10941220;27;20010;-78
2024/04/27 13:51:30;;;;;;;3.90;0.80;;;;;;;26.65;40.90;100966.03;10956273;27;20454;-81
2024/04/27 13:56:58;;;;;;;2.65;1.00;;;;;;;26.52;41.46;100971.13;10957893;27;20001;-81
2024/04/27 14:02:22;;;;;;;3.72;1.25;;;;;;;26.35;42.36;100973.75;10976131;27;20014;-81
2024/04/27 14:07:46;;;;;;;2.47;1.10;;;;;;;26.29;42.82;100968.63;10958130;27;20019;-81
2024/04/27 14:13:13;;;;;;;3.20;0.98;;;;;;;26.26;43.01;100971.47;10928425;27;20006;-84
2024/04/27 14:18:37;;;;;;;3.20;1.13;;;;;;;26.16;44.03;100974.56;10928117;26;20006;-83
2024/04/27 14:24:01;;;;;;;4.50;1.23;;;;;;;26.26;43.68;100980.47;10977711;27;20002;-82
2024/04/27 14:29:33;;;;;;;4.18;0.90;;;;;;;26.36;43.82;100980.94;10972287;27;20009;-80
2024/04/27 14:34:57;;;;;;;4.65;0.88;;;;;;;26.66;43.73;100982.19;10907943;27;20443;-80
2024/04/27 14:40:21;;;;;;;4.28;1.38;;;;;;;27.03;43.60;100977.75;10980768;27;20017;-81
2024/04/27 14:45:47;;;;;;;2.75;0.95;;;;;;;27.41;43.16;100979.44;10962567;27;20056;-80
2024/04/27 14:51:12;;;;;;;3.95;1.08;;;;;;;27.72;42.33;100974.22;10971130;27;20020;-82
2024/04/27 14:56:36;;;;;;;3.50;0.93;;;;;;;27.88;42.56;100978.84;10979196;27;20016;-82
2024/04/27 15:02:02;;;;;;;3.28;1.25;;;;;;;28.10;42.56;100971.31;10934771;27;20020;-79
2024/04/27 15:07:26;;;;;;;3.67;1.20;;;;;;;28.27;42.38;100979.47;10919697;27;20075;-79
2024/04/27 15:12:50;;;;;;;3.28;0.90;;;;;;;27.59;42.96;100986.66;10975267;27;19998;-82
2024/04/27 15:18:17;;;;;;;4.70;1.33;;;;;;;26.92;43.90;100992.69;10979523;27;20017;-80
2024/04/27 15:23:41;;;;;;;5.88;1.42;;;;;;;26.02;45.90;100984.25;10957730;27;20605;-81
2024/04/27 15:29:05;;;;;;;2.58;1.33;;;;;;;25.27;46.95;100982.03;10924683;27;20088;-81
2024/04/27 15:34:32;;;;;;;4.18;1.90;;;;;;;24.63;51.68;100973.81;10958639;27;20021;-80
2024/04/27 15:39:56;;;;;;;3.55;1.33;;;;;;;24.15;57.67;100979.25;10951315;26;20080;-82
2024/04/27 15:45:20;;;;;;;4.53;1.52;;;;;;;23.76;64.29;100978.81;10939841;26;20018;-81
2024/04/27 15:50:49;;;;;;;5.55;1.30;;;;;;;23.50;69.13;100980.69;10933272;26;20005;-80
2024/04/27 15:56:13;;;;;;;3.05;1.40;;;;;;;23.27;72.91;100978.72;10951697;27;20339;-79
2024/04/27 16:01:37;;;;;;;4.35;1.33;;;;;;;23.05;75.97;100978.53;10933755;27;20021;-78
2024/04/27 16:07:04;;;;;;;4.60;1.55;;;;;;;22.86;79.65;100991.72;10974200;26;20041;-81
2024/04/27 16:12:28;;;;;;;3.73;1.70;;;;;;;22.68;84.04;100994.94;10914194;27;20087;-79
2024/04/27 16:17:53;;;;;;;6.72;1.50;;;;;;;22.51;87.13;100995.44;10960490;26;20008;-80
2024/04/27 16:23:20;;;;;;;5.95;1.58;;;;;;;22.38;92.32;101001.25;10947460;26;20017;-78
2024/04/27 16:28:45;;;;;;;2.83;1.38;;;;;;;22.26;94.00;101003.34;10976557;27;20084;-79
2024/04/27 16:34:09;;;;;;;4.95;1.70;;;;;;;;;;10925591;27;20351;-78
2024/04/27 16:39:37;;;;;;;7.13;2.00;;;;;;;22.07;97.82;101023.63;10919225;27;20426;-77
2024/04/27 16:45:01;;;;;;;6.53;1.92;;;;;;;21.92;98.61;101031.22;10953113;26;20006;-79
2024/04/27 16:50:25;;;;;;;5.20;1.80;;;;;;;21.76;99.74;101026.22;10953801;27;20002;-77
2024/04/27 16:55:52;;;;;;;4.97;2.17;;;;;;;21.57;100.00;101027.63;10956562;27;20057;-78
2024/04/27 17:01:17;;;;;;;6.87;1.87;;;;;;;21.45;100.00;101022.56;10961191;27;20934;-79
2024/04/27 17:06:42;;;;;;;3.72;1.80;;;;;;;21.34;100.00;101028.19;10925393;27;20025;-79
2024/04/27 17:12:09;;;;;;;3.33;1.70;;;;;;;21.29;100.00;101024.72;10948595;27;20079;-80
2024/04/27 17:17:33;;;;;;;9.37;1.60;;;;;;;21.14;100.00;101038.47;11019777;26;20068;-78
2024/04/27 17:23:01;;;;;;;5.03;1.90;;;;;;;21.00;100.00;101040.63;10977654;26;20006;-79
2024/04/27 17:28:31;;;;;;;2.83;1.43;;;;;;;20.97;100.00;101056.78;10954431;27;19997;-77
2024/04/27 17:33:55;;;;;;;2.95;1.83;;;;;;;20.88;100.00;101067.72;10989547;27;20015;-79
2024/04/27 17:39:21;;;;;;;3.13;1.92;;;;;;;20.88;100.00;101062.34;10989712;27;20017;-80
2024/04/27 17:44:48;;;;;;;2.63;1.75;;;;;;;20.85;100.00;101073.16;10986441;27;20034;-79
2024/04/27 17:50:12;;;;;;;6.57;1.98;;;;;;;20.78;100.00;101076.91;10983259;27;20357;-80
2024/04/27 17:55:36;;;;;;;3.17;1.63;;;;;;;20.74;100.00;101070.72;10962262;27;20017;-80
2024/04/27 18:01:03;;;;;;;2.53;1.83;;;;;;;20.63;100.00;101084.34;10966064;27;20013;-79
2024/04/27 18:06:28;;;;;;;5.72;1.70;;;;;;;20.37;100.00;101094.72;10944039;27;20006;-80
2024/04/27 18:11:52;;;;;;;4.50;1.80;;;;;;;20.16;100.00;101095.97;10921315;27;20006;-78
2024/04/27 18:17:19;;;;;;;8.88;2.80;;;;;;;19.94;100.00;101107.09;10945779;26;20075;-79
2024/04/27 18:22:44;;;;;;;6.87;3.60;;;;;;;20.03;100.00;101109.59;10919452;27;20018;-80
2024/04/27 18:28:08;;;;;;;4.72;1.70;;;;;;;19.88;100.00;101122.38;10932823;27;20057;-80
2024/04/27 18:33:35;;;;;;;3.95;1.70;;;;;;;19.87;100.00;101119.72;10956689;27;20651;-79
2024/04/27 18:39:00;;;;;;;3.75;1.90;;;;;;;19.86;100.00;101126.00;10951692;27;19998;-80
2024/04/27 18:44:24;;;;;;;5.50;2.15;;;;;;;19.94;100.00;101124.06;10931807;26;20092;-78
2024/04/27 18:49:51;;;;;;;5.20;2.53;;;;;;;19.88;100.00;101122.38;10899789;27;20043;-79
2024/04/27 18:55:16;;;;;;;3.78;2.00;;;;;;;19.79;100.00;101129.69;10919508;27;20006;-78
2024/04/27 19:00:40;;;;;;;4.40;1.75;;;;;;;19.51;100.00;101137.25;10962377;27;20030;-79
2024/04/27 19:06:11;;;;;;;3.90;1.80;;;;;;;19.46;100.00;101148.03;10919749;26;20034;-77
2024/04/27 19:11:35;;;;;;;6.22;1.83;;;;;;;19.40;100.00;101142.75;10941644;27;20350;-79
2024/04/27 19:16:59;;;;;;;5.95;1.90;;;;;;;19.37;100.00;101139.22;10967692;26;20004;-78
2024/04/27 19:22:30;;;;;;;7.95;1.80;;;;;;;19.43;100.00;101142.69;11032579;26;20031;-79
2024/04/27 19:27:54;;;;;;;4.75;1.75;;;;;;;19.49;100.00;101149.81;10886762;27;20017;-80
2024/04/27 19:33:18;;;;;;;6.65;1.50;;;;;;;19.42;100.00;101140.94;10923594;27;19998;-79
2024/04/27 19:38:45;;;;;;;2.97;1.60;;;;;;;19.33;100.00;101151.78;10889785;27;20013;-79
2024/04/27 19:44:09;;;;;;;3.50;1.50;;;;;;;19.21;100.00;101151.06;10921255;27;20033;-78
2024/04/27 19:49:33;;;;;;;6.85;3.40;;;;;;;19.23;100.00;101149.25;10973661;27;20445;-79
2024/04/27 19:55:00;;;;;;;7.38;5.50;;;;;;;19.30;100.00;101162.50;10948089;27;20715;-79
2024/04/27 20:00:24;;;;;;;4.03;1.85;;;;;;;19.18;100.00;101156.44;10924540;27;20729;-79
2024/04/27 20:05:48;;;;;;;2.25;1.52;;;;;;;19.25;100.00;101158.13;10957179;27;20010;-79
2024/04/27 20:11:16;;;;;;;3.53;1.60;;;;;;;19.27;100.00;101162.56;10921492;27;20006;-80
2024/04/27 20:16:41;;;;;;;3.70;1.83;;;;;;;19.19;100.00;101158.22;10968235;26;20001;-79
2024/04/27 20:22:06;;;;;;;5.20;1.90;;;;;;;19.16;100.00;101166.31;10982238;26;20002;-78
2024/04/27 20:27:34;;;;;;;4.40;1.90;;;;;;;19.17;100.00;101174.28;10940161;27;20002;-78
2024/04/27 20:33:00;;;;;;;6.65;1.90;;;;;;;19.06;100.00;101171.75;10958346;27;20022;-80
2024/04/27 20:38:24;;;;;;;3.22;1.98;;;;;;;19.10;100.00;101170.81;10984002;27;20759;-79
2024/04/27 20:43:52;;;;;;;4.60;1.67;;;;;;;19.10;100.00;101162.78;10959143;26;20446;-79
2024/04/27 20:49:16;;;;;;;3.70;2.00;;;;;;;18.96;100.00;101170.13;10978000;27;20024;-79
2024/04/27 20:54:41;;;;;;;3.47;2.03;;;;;;;18.88;100.00;101163.97;10937532;26;20033;-79
2024/04/27 21:00:09;;;;;;;6.07;2.33;;;;;;;18.89;100.00;101164.84;10963763;27;20014;-79
2024/04/27 21:05:33;;;;;;;;;;;;;;;18.90;100.00;101161.28;10937856;27;19997;-77
2024/04/27 21:10:59;;;;;;;5.57;1.98;;;;;;;18.79;100.00;101155.16;10959902;27;20354;-79
2024/04/27 21:16:27;;;;;;;5.68;2.40;;;;;;;18.81;100.00;101150.69;10985521;27;20486;-78
2024/04/27 21:21:51;;;;;;;5.28;1.98;;;;;;;18.82;100.00;101145.31;10975683;27;19998;-79
2024/04/27 21:27:15;;;;;;;3.28;2.10;;;;;;;18.82;100.00;101139.97;10913584;27;20017;-79
2024/04/27 21:32:42;;;;;;;4.32;2.10;;;;;;;18.78;100.00;101145.34;10913736;27;20010;-79
2024/04/27 21:38:07;;;;;;;4.10;2.10;;;;;;;18.72;100.00;101140.97;10957188;27;20014;-79
2024/04/27 21:43:31;;;;;;;4.53;2.17;;;;;;;18.65;100.00;101144.59;10957383;27;20006;-80
2024/04/27 21:49:01;;;;;;;3.28;1.90;;;;;;;18.68;100.00;101144.59;10967020;27;20018;-79
2024/04/27 21:54:25;;;;;;;;;;;;;;;18.71;100.00;101142.75;10894498;27;20017;-79
2024/04/27 21:59:49;;;;;;;5.38;2.60;;;;;;;18.54;100.00;101138.47;10921182;27;20356;-80
2024/04/27 22:05:16;;;;;;;4.10;2.10;;;;;;;18.51;100.00;101143.88;10975593;27;19998;-78
2024/04/27 22:10:40;;;;;;;5.28;2.28;;;;;;;18.47;100.00;101134.97;10939911;27;20026;-80
2024/04/27 22:16:05;;;;;;;6.25;2.58;;;;;;;18.42;100.00;101125.25;10933829;27;20006;-79
2024/04/27 22:21:32;;;;;;;5.43;2.40;;;;;;;18.26;100.00;101130.75;10997707;26;20006;-80
2024/04/27 22:26:56;;;;;;;4.65;2.38;;;;;;;18.21;100.00;101124.56;10957390;27;20005;-79
2024/04/27 22:32:20;;;;;;;9.10;2.97;;;;;;;18.07;100.00;101126.47;10960884;27;20005;-78
2024/04/27 22:37:48;;;;;;;3.65;2.30;;;;;;;18.01;100.00;101113.16;10941403;27;20006;-78
2024/04/27 22:43:12;;;;;;;5.45;2.40;;;;;;;17.95;100.00;101107.88;10947901;27;20012;-78
2024/04/27 22:48:36;;;;;;;4.75;2.38;;;;;;;17.87;100.00;101113.28;10948818;27;20737;-78
2024/04/27 22:54:03;;;;;;;8.60;3.17;;;;;;;17.93;100.00;101112.34;10955062;27;20006;-79
2024/04/27 22:59:27;;;;;;;8.23;3.80;;;;;;;18.05;100.00;101103.34;10918517;27;20006;-79
2024/04/27 23:04:52;;;;;;;11.13;4.65;;;;;;;18.19;100.00;101106.75;10938691;27;20013;-78
2024/04/27 23:10:18;;;;;;;12.02;4.95;;;;;;;18.35;100.00;101100.34;10962288;27;20011;-78
2024/04/27 23:15:43;;;;;;;13.18;5.53;;;;;;;18.44;100.00;101092.25;10957162;27;20002;-79
2024/04/27 23:21:08;;;;;;;11.77;5.32;;;;;;;18.52;100.00;101089.47;10925310;27;20016;-78
2024/04/27 23:26:35;;;;;;;12.45;5.63;;;;;;;18.60;100.00;101088.50;10959076;27;20010;-79
2024/04/27 23:31:59;;;;;;;10.15;4.57;;;;;;;18.61;100.00;101084.06;10944128;27;20065;-79
2024/04/27 23:37:24;;;;;;;11.77;5.25;;;;;;;18.62;100.00;101092.06;10904723;27;20005;-79
2024/04/27 23:42:51;;;;;;;12.05;5.47;;;;;;;18.56;100.00;101092.13;10950470;27;20005;-78
2024/04/27 23:48:15;;;;;;;9.10;5.15;;;;;;;18.49;100.00;101089.50;10917203;27;20447;-80
2024/04/27 23:53:39;;;;;;;10.45;4.90;;;;;;;18.45;100.00;101088.66;10931844;27;20006;-79
2024/04/27 23:59:06;;;;;;;7.50;4.03;;;;;;;18.45;100.00;101096.66;10939857;27;20057;-80
